Time;durP1;ratioP1;P1;durP2;ratioP2;P2;SDS_P1;SDS_P2;PMS_P1;PMS_P2;Temp;Humidity;BMP_temperature;BMP_pressure;BME280_temperature;BME280_humidity;BME280_pressure;Samples;Min_cycle;Max_cycle;Signal;HPM_P1;HPM_P2
2022/06/17 00:02:06;;;;;;;1.35;1.25;;;;;;;22.37;46.29;93802.19;4977111;28;20045;-91
2022/06/17 00:04:31;;;;;;;1.30;0.95;;;;;;;22.37;46.32;93801.47;4977528;28;20420;-90
2022/06/17 00:07:01;;;;;;;1.30;1.17;;;;;;;22.40;46.23;93805.91;5010073;28;20459;-91
2022/06/17 00:09:28;;;;;;;1.30;1.20;;;;;;;22.38;46.04;93809.19;4994646;28;20041;-91
2022/06/17 00:11:53;;;;;;;1.27;1.17;;;;;;;22.39;46.03;93805.19;5009529;28;20041;-91
2022/06/17 00:14:24;;;;;;;1.52;1.42;;;;;;;22.36;46.27;93800.72;4993618;28;20099;-90
2022/06/17 00:16:50;;;;;;;1.23;1.13;;;;;;;22.36;46.28;93813.75;4978290;28;20038;-91
2022/06/17 00:19:18;;;;;;;1.58;1.48;;;;;;;22.38;46.02;93816.72;4993124;28;20064;-90
2022/06/17 00:21:44;;;;;;;1.30;1.08;;;;;;;22.36;46.36;93824.75;4994771;28;20038;-91
2022/06/17 00:24:17;;;;;;;1.45;1.35;;;;;;;22.38;46.05;93822.97;4976405;28;20444;-90
2022/06/17 00:26:43;;;;;;;1.20;1.10;;;;;;;22.37;46.17;93827.00;5026675;28;20044;-94
2022/06/17 00:29:11;;;;;;;1.13;1.02;;;;;;;22.37;46.15;93824.25;5025944;28;20038;-91
2022/06/17 00:31:36;;;;;;;2.03;1.40;;;;;;;22.37;46.07;93820.75;4993825;28;20132;-91
2022/06/17 00:34:01;;;;;;;1.38;1.27;;;;;;;22.36;46.09;93827.53;5009692;28;20072;-90
2022/06/17 00:36:27;;;;;;;1.38;1.17;;;;;;;22.36;46.06;93827.53;5011459;28;20049;-91
2022/06/17 00:38:52;;;;;;;1.50;1.33;;;;;;;22.36;45.97;93827.53;5010077;28;20037;-91
2022/06/17 00:41:25;;;;;;;1.65;1.48;;;;;;;22.34;46.09;93822.53;4976957;28;20575;-90
2022/06/17 00:43:51;;;;;;;1.58;1.48;;;;;;;22.35;46.50;93826.78;4994116;28;20114;-91
2022/06/17 00:46:41;;;;;;;1.65;1.55;;;;;;;22.34;46.19;93833.56;4976827;28;20053;-90
2022/06/17 00:49:09;;;;;;;1.73;1.50;;;;;;;22.37;46.09;93835.25;4992445;28;20136;-92
2022/06/17 00:51:39;;;;;;;1.40;1.30;;;;;;;22.34;46.09;93821.78;5009650;28;20073;-91
2022/06/17 00:54:16;;;;;;;1.30;1.20;;;;;;;22.34;46.20;93827.31;4993298;28;20045;-91
2022/06/17 00:56:42;;;;;;;1.58;1.48;;;;;;;22.32;46.20;93838.84;4997869;28;20271;-91
2022/06/17 00:59:09;;;;;;;1.70;1.58;;;;;;;22.33;46.23;93834.06;4980087;28;20130;-91
2022/06/17 01:01:50;;;;;;;2.22;1.60;;;;;;;22.34;46.06;93835.56;4975223;28;20034;-91
2022/06/17 01:04:20;;;;;;;1.42;1.33;;;;;;;22.34;46.34;93835.56;5028990;28;20117;-91
2022/06/17 01:06:51;;;;;;;1.73;1.63;;;;;;;22.32;46.02;93838.09;5013668;28;20041;-92
2022/06/17 01:12:05;;;;;;;1.50;1.40;;;;;;;22.33;46.16;93825.81;5014528;28;20021;-91
2022/06/17 01:14:30;;;;;;;1.80;1.70;;;;;;;22.32;46.14;93821.56;4994184;28;20532;-91
2022/06/17 01:16:56;;;;;;;1.40;1.30;;;;;;;22.31;46.37;93836.63;5004163;28;20123;-91
2022/06/17 01:19:35;;;;;;;0.98;0.98;;;;;;;22.31;46.11;93845.63;4977129;28;20042;-91
2022/06/17 01:22:22;;;;;;;1.38;1.27;;;;;;;22.31;46.21;93844.88;4978183;28;20430;-91
2022/06/17 01:24:48;;;;;;;1.73;1.60;;;;;;;22.31;46.25;93851.13;5021818;28;20601;-91
2022/06/17 01:27:17;;;;;;;2.00;1.80;;;;;;;22.31;46.29;93850.38;4979639;28;20041;-91
2022/06/17 01:29:43;;;;;;;1.97;1.37;;;;;;;22.30;46.21;93849.63;4997582;28;20110;-90
2022/06/17 01:32:08;;;;;;;1.27;1.17;;;;;;;22.30;46.25;93846.88;5008953;28;20056;-91
2022/06/17 01:34:34;;;;;;;1.40;1.30;;;;;;;22.29;46.44;93850.19;5027020;28;20419;-91
2022/06/17 01:37:00;;;;;;;1.95;1.58;;;;;;;22.29;46.26;93853.69;4979712;28;20045;-90
2022/06/17 01:39:25;;;;;;;1.65;1.40;;;;;;;22.29;46.30;93848.19;4979826;28;20042;-90
2022/06/17 01:41:52;;;;;;;2.22;1.48;;;;;;;22.29;46.26;93850.94;4996843;28;20494;-91
2022/06/17 01:44:25;;;;;;;1.67;1.52;;;;;;;22.31;46.21;93848.38;5011977;28;20128;-91
2022/06/17 01:46:52;;;;;;;1.75;1.65;;;;;;;22.31;46.36;93859.38;4998036;28;20037;-91
2022/06/17 01:49:21;;;;;;;1.70;1.60;;;;;;;22.28;46.37;93852.19;4999837;28;20049;-91
2022/06/17 01:51:50;;;;;;;1.80;1.70;;;;;;;22.28;46.16;93851.47;4999860;28;20033;-92
2022/06/17 01:54:18;;;;;;;1.95;1.55;;;;;;;22.29;46.21;93845.44;5015596;28;20044;-91
2022/06/17 01:56:44;;;;;;;1.90;1.70;;;;;;;22.28;46.19;93845.94;4999912;28;20493;-91
2022/06/17 01:59:18;;;;;;;1.88;1.50;;;;;;;22.28;46.39;93851.47;5031501;28;20509;-90
2022/06/17 02:01:45;;;;;;;1.50;1.40;;;;;;;22.29;46.22;93845.44;4984688;28;20038;-91
2022/06/17 02:04:15;;;;;;;1.55;1.45;;;;;;;22.27;46.10;93842.44;4995489;28;20400;-90
2022/06/17 02:06:54;;;;;;;1.90;1.35;;;;;;;22.27;46.13;93847.97;4995184;28;20048;-91
2022/06/17 02:09:19;;;;;;;1.48;1.38;;;;;;;22.27;46.02;93849.97;4992152;28;20048;-91
2022/06/17 02:11:45;;;;;;;1.60;1.50;;;;;;;22.26;46.24;93851.25;4997573;28;20045;-90
2022/06/17 02:14:11;;;;;;;1.83;1.65;;;;;;;22.27;46.11;93847.97;5015422;28;20033;-91
2022/06/17 02:16:38;;;;;;;2.10;1.83;;;;;;;22.27;46.05;93850.72;5015486;28;20039;-91
2022/06/17 02:19:03;;;;;;;1.45;1.35;;;;;;;22.27;46.23;93856.22;4998352;28;20041;-90
2022/06/17 02:21:39;;;;;;;1.50;1.40;;;;;;;22.26;46.09;93849.22;5015623;28;20508;-92
2022/06/17 02:24:04;;;;;;;2.55;1.80;;;;;;;22.27;46.29;93853.47;4994067;28;20041;-90
2022/06/17 02:26:31;;;;;;;1.40;1.30;;;;;;;22.28;46.06;93843.94;5031699;28;20399;-91
2022/06/17 02:28:56;;;;;;;1.42;1.33;;;;;;;22.26;46.06;93851.25;5015822;28;20147;-91
2022/06/17 02:31:22;;;;;;;2.03;1.83;;;;;;;22.27;45.81;93856.22;4998517;28;20089;-91
2022/06/17 02:33:49;;;;;;;2.30;1.60;;;;;;;22.24;45.93;93846.25;5032015;28;20045;-92
2022/06/17 02:36:20;;;;;;;2.47;1.83;;;;;;;22.23;46.22;93842.00;5014453;28;20099;-91
2022/06/17 02:38:45;;;;;;;1.80;1.70;;;;;;;22.24;46.15;93849.00;4999529;28;20049;-91
2022/06/17 02:41:12;;;;;;;2.33;2.13;;;;;;;22.23;46.28;93842.75;5031241;28;20475;-92
2022/06/17 02:43:52;;;;;;;1.80;1.70;;;;;;;22.25;46.01;93856.00;4999216;28;20025;-91
2022/06/17 02:46:24;;;;;;;2.35;2.15;;;;;;;22.23;46.24;93851.03;4999349;28;20037;-91
2022/06/17 02:48:54;;;;;;;2.50;1.95;;;;;;;22.20;46.33;93854.81;5015024;28;20048;-91
2022/06/17 02:51:21;;;;;;;2.08;1.88;;;;;;;22.23;46.24;93855.78;5014303;28;20056;-91
2022/06/17 02:53:46;;;;;;;1.92;1.73;;;;;;;22.21;46.10;93866.59;5015114;28;20037;-91
2022/06/17 02:56:18;;;;;;;1.60;1.50;;;;;;;22.20;46.17;93860.31;5014261;28;20518;-91
2022/06/17 02:58:52;;;;;;;2.58;1.90;;;;;;;22.23;46.02;93872.31;4999621;28;20040;-92
2022/06/17 03:01:22;;;;;;;2.03;1.83;;;;;;;22.21;46.09;93861.81;5031420;28;20036;-91
2022/06/17 03:03:47;;;;;;;;;;;;;;;22.23;46.01;93862.03;5015255;28;20047;-91
2022/06/17 03:06:16;;;;;;;2.17;1.98;;;;;;;22.21;46.15;93859.06;5013930;28;19913;-90
2022/06/17 03:08:42;;;;;;;2.00;1.80;;;;;;;22.21;46.09;93850.06;5031606;28;20098;-91
2022/06/17 03:11:07;;;;;;;2.78;2.00;;;;;;;22.18;46.12;93849.09;4997653;28;20462;-91
2022/06/17 03:13:42;;;;;;;2.97;2.67;;;;;;;22.21;46.18;93861.06;5014237;28;20098;-90
2022/06/17 03:16:09;;;;;;;2.05;1.70;;;;;;;22.19;46.17;93858.09;4997681;28;20045;-93
2022/06/17 03:18:35;;;;;;;2.40;2.20;;;;;;;22.20;46.02;93860.31;4997895;28;20510;-91
2022/06/17 03:21:00;;;;;;;2.60;2.33;;;;;;;22.20;46.06;93862.34;5013617;28;20048;-94
2022/06/17 03:23:28;;;;;;;3.38;1.92;;;;;;;22.19;45.97;93864.34;5009806;28;20805;-90
2022/06/17 03:25:58;;;;;;;3.90;2.25;;;;;;;22.20;46.09;93862.34;5007981;28;20487;-90
2022/06/17 03:28:29;;;;;;;20.30;13.82;;;;;;;22.24;46.28;93854.50;4994051;28;20095;-90
2022/06/17 03:30:58;;;;;;;6.32;4.35;;;;;;;22.21;46.05;93861.81;4994466;28;20162;-92
2022/06/17 03:33:37;;;;;;;6.15;3.95;;;;;;;22.21;46.08;93861.81;4994937;28;20408;-91
2022/06/17 03:36:19;;;;;;;50.40;30.00;;;;;;;22.23;46.09;93870.28;5012981;28;20502;-88
2022/06/17 03:38:49;;;;;;;6.32;3.38;;;;;;;22.25;46.37;93878.03;5014604;28;20118;-89
2022/06/17 03:41:25;;;;;;;2.58;2.00;;;;;;;22.26;45.99;93879.53;5028652;28;20463;-90
2022/06/17 03:43:54;;;;;;;1.90;1.70;;;;;;;22.26;46.08;93887.03;5013094;28;20044;-89
2022/06/17 03:46:20;;;;;;;2.00;1.80;;;;;;;22.26;45.99;93881.53;5012606;28;20029;-89
2022/06/17 03:48:52;;;;;;;14.27;12.75;;;;;;;22.28;46.00;93884.50;5029746;28;20037;-91
2022/06/17 03:51:20;;;;;;;6.68;5.53;;;;;;;22.29;45.75;93889.50;5014041;28;20052;-90
2022/06/17 03:53:45;;;;;;;5.93;4.18;;;;;;;22.27;45.96;93894.03;4998086;28;20037;-91
2022/06/17 03:56:17;;;;;;;5.60;3.83;;;;;;;22.28;46.09;93912.78;5013391;28;20043;-89
2022/06/17 03:58:43;;;;;;;3.22;2.92;;;;;;;22.32;45.86;93899.44;5014985;28;20036;-90
2022/06/17 04:01:36;;;;;;;3.90;2.63;;;;;;;22.31;45.90;93905.47;5007067;28;20068;-88
2022/06/17 04:04:05;;;;;;;14.10;9.80;;;;;;;22.31;45.93;93925.50;5020399;28;20048;-90
2022/06/17 04:06:36;;;;;;;101.18;80.53;;;;;;;22.38;45.88;93924.16;4995196;28;20040;-89
2022/06/17 04:09:05;;;;;;;89.65;73.18;;;;;;;22.35;46.06;93917.69;5011289;28;20124;-89
2022/06/17 04:11:38;;;;;;;14.05;10.48;;;;;;;22.35;45.82;93919.69;4994582;28;20117;-90
2022/06/17 04:14:06;;;;;;;5.35;4.65;;;;;;;22.33;45.83;93920.22;4994425;28;20053;-91
2022/06/17 04:16:35;;;;;;;4.13;3.50;;;;;;;22.33;45.92;93922.97;5010271;28;20034;-89
2022/06/17 04:19:12;;;;;;;5.95;3.45;;;;;;;22.34;45.92;93923.72;4994430;28;20036;-87
2022/06/17 04:21:37;;;;;;;5.90;3.13;;;;;;;22.34;45.83;93921.69;4976767;28;20053;-89
2022/06/17 04:24:06;;;;;;;3.50;2.90;;;;;;;22.34;45.73;93920.94;5007953;28;20034;-89
2022/06/17 04:26:32;;;;;;;3.58;2.40;;;;;;;22.32;45.90;93918.72;5021811;28;20037;-89
2022/06/17 04:29:01;;;;;;;3.92;2.85;;;;;;;22.32;45.71;93921.47;5010199;28;20120;-89
2022/06/17 04:31:29;;;;;;;2.70;2.47;;;;;;;22.31;45.66;93928.25;5014531;28;20025;-89
2022/06/17 04:34:10;;;;;;;3.97;3.00;;;;;;;22.31;45.72;93922.75;5033607;28;20116;-89
2022/06/17 04:36:45;;;;;;;6.60;3.17;;;;;;;22.32;45.77;93934.50;5001240;28;20061;-89
2022/06/17 04:39:23;;;;;;;26.33;6.47;;;;;;;22.32;45.70;93931.75;4997903;28;20054;-91
2022/06/17 04:41:51;;;;;;;20.65;6.72;;;;;;;22.33;45.66;93931.22;5032557;28;20052;-90
2022/06/17 04:44:16;;;;;;;11.73;4.60;;;;;;;22.34;45.59;93938.22;4981048;28;20123;-89
2022/06/17 04:46:49;;;;;;;14.13;4.15;;;;;;;22.33;45.72;93936.72;4999546;28;20026;-89
2022/06/17 04:49:18;;;;;;;15.18;5.05;;;;;;;22.34;46.06;93931.97;4995933;28;20319;-88
2022/06/17 04:51:44;;;;;;;15.38;5.05;;;;;;;22.36;45.68;93935.69;5000874;28;20038;-94
2022/06/17 04:54:10;;;;;;;7.15;4.00;;;;;;;22.29;44.32;93939.06;5001605;28;20115;-90
2022/06/17 04:56:39;;;;;;;10.38;5.32;;;;;;;22.12;44.72;93936.53;4983658;28;20049;-89
2022/06/17 04:59:26;;;;;;;32.55;10.20;;;;;;;21.88;44.26;93944.84;5000787;28;20192;-90
2022/06/17 05:01:51;;;;;;;11.90;5.68;;;;;;;21.53;44.15;93948.56;5016750;28;20041;-87
2022/06/17 05:04:17;;;;;;;11.05;6.43;;;;;;;21.42;44.43;93954.22;4989513;28;20057;-86
2022/06/17 05:06:42;;;;;;;12.05;7.20;;;;;;;21.32;44.64;93956.56;5025002;28;20046;-85
2022/06/17 05:09:20;;;;;;;15.27;9.18;;;;;;;21.13;45.06;93966.72;5023144;28;20395;-85
2022/06/17 05:11:45;;;;;;;14.52;9.75;;;;;;;20.77;45.92;93964.06;5025854;28;20040;-86
2022/06/17 05:14:22;;;;;;;12.10;6.63;;;;;;;20.82;46.25;93966.00;4998560;28;20080;-87
2022/06/17 05:16:47;;;;;;;9.38;5.95;;;;;;;20.63;46.80;93965.19;5015019;28;20491;-86
2022/06/17 05:19:13;;;;;;;9.85;5.35;;;;;;;20.66;46.61;93972.41;5032771;28;20103;-86
2022/06/17 05:21:38;;;;;;;8.00;5.32;;;;;;;20.58;46.98;93970.72;5004744;28;20029;-83
2022/06/17 05:24:04;;;;;;;6.65;5.50;;;;;;;20.50;47.16;93981.53;5003393;28;20044;-85
2022/06/17 05:26:30;;;;;;;8.43;4.60;;;;;;;20.51;47.30;93978.25;5024356;28;20045;-85
2022/06/17 05:28:56;;;;;;;10.05;4.70;;;;;;;20.43;47.48;93977.31;5013392;28;20133;-85
2022/06/17 05:31:22;;;;;;;6.18;4.47;;;;;;;20.38;47.64;93988.34;5009066;28;20049;-83
2022/06/17 05:33:48;;;;;;;13.52;4.60;;;;;;;20.30;47.81;93995.63;5015945;28;20041;-84
2022/06/17 05:36:14;;;;;;;21.15;18.92;;;;;;;20.22;48.65;93991.91;5001186;28;20056;-88
2022/06/17 05:38:39;;;;;;;72.43;59.45;;;;;;;20.19;48.38;93993.66;5007008;28;20123;-84
2022/06/17 05:41:06;;;;;;;93.55;73.25;;;;;;;20.31;48.19;93988.88;5015867;28;20091;-85
2022/06/17 05:43:31;;;;;;;376.80;273.13;;;;;;;20.28;47.98;93993.38;5014387;28;20037;-91
2022/06/17 05:45:57;;;;;;;214.82;172.55;;;;;;;20.33;48.05;94002.84;5019355;28;20116;-86
2022/06/17 05:48:22;;;;;;;14.25;12.57;;;;;;;20.32;48.27;93996.59;5013447;28;20103;-87
2022/06/17 05:50:47;;;;;;;259.13;214.27;;;;;;;20.36;47.84;93991.56;5032288;28;20508;-89
2022/06/17 05:53:13;;;;;;;7.75;6.00;;;;;;;20.34;47.52;93998.84;5015977;28;20041;-86
2022/06/17 05:55:40;;;;;;;6.18;5.10;;;;;;;20.41;47.49;93998.31;5032182;28;20581;-86
2022/06/17 05:58:05;;;;;;;6.43;4.40;;;;;;;20.45;47.88;94007.75;5014386;28;20069;-85
2022/06/17 06:00:31;;;;;;;8.02;5.03;;;;;;;20.47;47.55;93997.00;5014485;28;20499;-86
2022/06/17 06:02:58;;;;;;;6.93;4.60;;;;;;;20.53;47.41;93994.22;5008772;28;20035;-91
2022/06/17 06:05:24;;;;;;;11.13;5.00;;;;;;;20.57;47.28;93993.97;5007602;28;20591;-84
2022/06/17 06:07:49;;;;;;;6.93;4.63;;;;;;;20.64;47.60;93990.66;5007852;28;20133;-85
2022/06/17 06:10:15;;;;;;;9.55;4.53;;;;;;;20.68;46.91;93994.59;4991623;28;20049;-86
2022/06/17 06:13:03;;;;;;;5.15;4.10;;;;;;;20.70;46.61;93996.84;5010805;28;20038;-86
2022/06/17 06:15:35;;;;;;;6.05;4.47;;;;;;;20.69;46.86;94004.34;5025053;28;20088;-87
2022/06/17 06:18:03;;;;;;;6.55;4.60;;;;;;;20.69;47.30;94004.34;5011524;28;20472;-86
2022/06/17 06:20:28;;;;;;;5.47;4.78;;;;;;;20.80;46.34;94011.75;4993650;28;20362;-85
2022/06/17 06:22:54;;;;;;;7.25;6.55;;;;;;;20.81;46.46;94011.22;5010356;28;20155;-86
2022/06/17 06:25:19;;;;;;;21.58;10.90;;;;;;;20.85;46.33;94016.44;4981538;28;20041;-86
2022/06/17 06:27:45;;;;;;;19.25;10.48;;;;;;;20.82;46.71;94020.22;4998383;28;20124;-86
2022/06/17 06:30:22;;;;;;;36.53;21.25;;;;;;;20.85;46.69;94028.19;5014880;28;20443;-87
2022/06/17 06:32:54;;;;;;;24.65;11.80;;;;;;;20.91;46.38;94041.91;4999802;28;20033;-85
2022/06/17 06:35:24;;;;;;;23.45;11.93;;;;;;;20.84;46.26;94040.44;4998926;28;20563;-87
2022/06/17 06:37:49;;;;;;;16.25;8.00;;;;;;;20.71;46.47;94039.56;4982388;28;20107;-88
2022/06/17 06:40:15;;;;;;;30.90;12.98;;;;;;;20.84;46.55;94040.44;4982262;28;20049;-89
2022/06/17 06:42:40;;;;;;;26.25;13.07;;;;;;;20.90;46.33;94039.66;4982211;28;20060;-88
2022/06/17 06:45:06;;;;;;;18.85;10.07;;;;;;;20.99;46.21;94034.59;4999743;28;20119;-89
2022/06/17 06:47:32;;;;;;;26.30;10.18;;;;;;;21.14;45.86;94031.44;4996303;28;20040;-86
2022/06/17 06:49:57;;;;;;;174.27;148.13;;;;;;;21.24;45.63;94035.38;5039847;28;20045;-87
2022/06/17 06:52:22;;;;;;;16.77;9.63;;;;;;;21.19;45.88;94036.16;5031252;28;20045;-89
2022/06/17 06:54:50;;;;;;;13.20;8.73;;;;;;;21.30;45.82;94043.56;5018159;28;20041;-89
2022/06/17 06:57:16;;;;;;;17.55;11.07;;;;;;;21.30;45.81;94038.81;5050699;28;20509;-88
2022/06/17 06:59:42;;;;;;;20.67;13.32;;;;;;;21.39;45.30;94040.50;5034549;28;20060;-88
2022/06/17 07:02:08;;;;;;;36.60;20.75;;;;;;;21.38;45.49;94047.25;5042503;28;20093;-88
2022/06/17 07:04:34;;;;;;;45.90;20.15;;;;;;;21.41;45.37;94044.22;5034795;28;20120;-88
2022/06/17 07:06:59;;;;;;;35.75;15.40;;;;;;;21.45;45.37;94041.91;5017752;28;20041;-88
2022/06/17 07:09:25;;;;;;;29.15;14.77;;;;;;;21.42;45.46;94047.72;5018107;28;20036;-88
2022/06/17 07:11:50;;;;;;;34.78;15.13;;;;;;;21.45;45.56;94050.16;5002180;28;20045;-89
2022/06/17 07:14:16;;;;;;;34.30;13.80;;;;;;;21.42;45.78;94044.97;4999901;28;20380;-87
2022/06/17 07:16:42;;;;;;;24.65;14.48;;;;;;;21.48;45.54;94048.38;5022979;28;20040;-87
2022/06/17 07:19:10;;;;;;;22.25;12.13;;;;;;;21.46;45.72;94048.91;5018757;28;20033;-86
2022/06/17 07:21:35;;;;;;;14.13;9.15;;;;;;;21.44;45.99;94056.94;5025747;28;20110;-85
2022/06/17 07:24:01;;;;;;;16.10;8.02;;;;;;;21.48;45.86;94043.63;5025601;28;20041;-84
2022/06/17 07:26:27;;;;;;;14.45;7.80;;;;;;;21.46;45.95;94053.66;5054598;28;20112;-85
2022/06/17 07:28:53;;;;;;;11.13;6.97;;;;;;;21.48;45.91;94049.13;5048082;28;20709;-86
2022/06/17 07:31:18;;;;;;;15.40;8.73;;;;;;;21.48;46.05;94057.38;5027094;28;20037;-86
2022/06/17 07:33:44;;;;;;;9.90;8.10;;;;;;;21.60;45.86;94047.03;5055904;28;20056;-85
2022/06/17 07:39:53;;;;;;;54.75;24.38;;;;;;;21.47;46.22;94061.41;5049596;28;20060;-85
2022/06/17 07:41:42;;;;;;;29.88;12.82;;;;;;;21.54;46.48;94049.84;5032665;28;20032;-84
2022/06/17 07:44:08;;;;;;;81.05;40.22;;;;;;;21.61;46.33;94054.03;5048380;28;20282;-88
2022/06/17 07:46:34;;;;;;;22.42;13.18;;;;;;;21.53;46.45;94053.09;5055702;28;20507;-89
2022/06/17 07:48:59;;;;;;;25.33;14.43;;;;;;;21.61;46.63;94053.28;5013103;28;20047;-88
2022/06/17 07:51:25;;;;;;;18.85;11.57;;;;;;;21.59;46.32;94062.03;5038154;28;20068;-84
2022/06/17 07:53:50;;;;;;;21.92;14.20;;;;;;;21.73;45.89;94060.88;5034844;28;20083;-86
2022/06/17 07:56:16;;;;;;;19.42;12.07;;;;;;;21.63;46.27;94059.75;5019373;28;20037;-86
2022/06/17 07:58:41;;;;;;;17.50;11.02;;;;;;;21.67;46.96;94064.94;5052240;28;20025;-86
2022/06/17 08:01:07;;;;;;;16.77;9.60;;;;;;;21.70;46.62;94077.69;5026546;28;20475;-86
2022/06/17 08:03:34;;;;;;;16.45;10.10;;;;;;;21.73;46.48;94068.41;5051419;28;20037;-86
2022/06/17 08:06:02;;;;;;;20.15;12.75;;;;;;;21.78;46.43;94059.34;5056336;28;20447;-87
2022/06/17 08:08:28;;;;;;;18.23;10.88;;;;;;;21.76;46.46;94070.13;5047212;28;20029;-86
2022/06/17 08:10:55;;;;;;;13.30;9.48;;;;;;;21.79;46.33;94069.09;5052992;28;20079;-85
2022/06/17 08:13:21;;;;;;;16.50;9.00;;;;;;;21.82;46.36;94065.31;5031190;28;20038;-85
2022/06/17 08:15:47;;;;;;;11.77;9.95;;;;;;;21.81;46.26;94070.06;5027327;28;20049;-86
2022/06/17 08:18:13;;;;;;;10.10;8.30;;;;;;;21.82;46.39;94057.06;5008640;28;20037;-86
2022/06/17 08:20:38;;;;;;;10.43;7.03;;;;;;;21.77;46.53;94069.59;5030315;28;20029;-86
2022/06/17 08:23:04;;;;;;;11.45;7.07;;;;;;;21.83;46.60;94066.78;5045564;28;20041;-85
2022/06/17 08:25:30;;;;;;;12.93;6.63;;;;;;;21.78;46.98;94073.09;5000568;28;20038;-88
2022/06/17 08:27:56;;;;;;;10.43;7.03;;;;;;;21.80;46.90;94073.34;5043793;28;20123;-87
2022/06/17 08:30:25;;;;;;;10.60;7.93;;;;;;;21.85;46.67;94078.03;5053763;28;20063;-88
2022/06/17 08:32:53;;;;;;;9.35;8.35;;;;;;;21.80;46.76;94076.09;5055929;28;20044;-88
2022/06/17 08:35:22;;;;;;;10.70;8.45;;;;;;;21.84;46.84;94069.03;5041372;28;20041;-88
2022/06/17 08:37:48;;;;;;;11.18;8.00;;;;;;;21.83;46.58;94067.53;5067945;28;20044;-91
2022/06/17 08:40:38;;;;;;;12.63;8.75;;;;;;;21.88;46.76;94085.25;5031886;28;20064;-89
2022/06/17 08:43:26;;;;;;;8.48;7.38;;;;;;;21.87;46.50;94092.00;5037269;28;20110;-91
2022/06/17 08:46:06;;;;;;;10.70;7.28;;;;;;;21.87;46.40;94089.25;5052397;28;20069;-87
2022/06/17 08:49:05;;;;;;;12.15;7.18;;;;;;;21.82;46.72;94082.56;5034648;28;20041;-88
2022/06/17 08:51:37;;;;;;;11.88;6.85;;;;;;;21.88;46.47;94083.22;5048648;28;20037;-89
2022/06/17 08:54:11;;;;;;;9.68;7.47;;;;;;;21.86;46.86;94087.78;5051971;28;20041;-90
2022/06/17 08:57:00;;;;;;;9.98;6.47;;;;;;;21.90;46.50;94088.97;5053110;28;20039;-89
2022/06/17 08:59:40;;;;;;;13.07;7.93;;;;;;;21.93;46.45;94087.19;5052053;28;20034;-90
2022/06/17 09:02:08;;;;;;;16.63;7.53;;;;;;;21.91;46.72;94092.47;5035523;28;20045;-90
2022/06/17 09:05:05;;;;;;;12.38;7.47;;;;;;;21.87;46.73;94095.50;5035291;28;20041;-89
2022/06/17 09:07:38;;;;;;;16.23;8.50;;;;;;;21.92;46.74;94098.72;5034023;28;20510;-90
2022/06/17 09:10:14;;;;;;;10.10;7.07;;;;;;;21.91;46.67;94103.47;5052546;28;20041;-90
2022/06/17 09:12:58;;;;;;;16.00;9.15;;;;;;;21.88;46.95;94108.00;5035062;28;20060;-91
2022/06/17 09:15:36;;;;;;;20.98;10.65;;;;;;;21.89;46.63;94106.75;5026092;28;20041;-88
2022/06/17 09:18:20;;;;;;;31.17;19.83;;;;;;;21.96;46.64;94099.91;5038107;28;20090;-88
2022/06/17 09:20:48;;;;;;;65.05;49.85;;;;;;;21.97;46.77;94106.91;5055661;28;20049;-88
2022/06/17 09:23:17;;;;;;;30.50;16.50;;;;;;;21.98;46.65;94108.41;5016843;28;20099;-88
2022/06/17 09:25:44;;;;;;;20.50;14.00;;;;;;;21.98;46.29;94099.41;5016868;28;20120;-86
2022/06/17 09:28:13;;;;;;;30.48;15.13;;;;;;;21.96;46.39;94097.16;5016202;28;20093;-85
2022/06/17 09:30:43;;;;;;;83.70;33.80;;;;;;;22.00;46.51;94107.91;5031607;28;20041;-87
2022/06/17 09:33:15;;;;;;;43.15;24.13;;;;;;;22.01;46.61;94101.91;5016494;28;20042;-88
2022/06/17 09:36:03;;;;;;;37.88;22.30;;;;;;;21.97;46.45;94108.94;5032522;28;20038;-87
2022/06/17 09:38:35;;;;;;;61.58;28.58;;;;;;;21.98;46.58;94111.16;5035367;28;20048;-87
2022/06/17 09:41:14;;;;;;;70.88;31.67;;;;;;;21.98;45.97;94100.16;5052980;28;20041;-87
2022/06/17 09:43:50;;;;;;;62.45;31.45;;;;;;;21.97;45.99;94097.91;5052641;28;20087;-88
2022/06/17 09:46:26;;;;;;;59.97;25.88;;;;;;;21.96;45.83;94108.19;5022848;28;20037;-88
2022/06/17 09:48:54;;;;;;;64.30;28.95;;;;;;;21.99;46.20;94103.66;5023642;28;20495;-86
2022/06/17 09:51:35;;;;;;;48.47;24.42;;;;;;;22.00;45.64;94108.66;5019008;28;20472;-86
2022/06/17 09:54:09;;;;;;;40.90;20.70;;;;;;;22.00;45.35;94097.66;5037445;28;20379;-87
2022/06/17 09:56:52;;;;;;;61.83;33.47;;;;;;;22.02;45.53;94105.41;5020712;28;20034;-87
2022/06/17 09:59:32;;;;;;;41.72;19.55;;;;;;;22.03;45.37;94099.38;5035376;28;20029;-87
2022/06/17 10:02:06;;;;;;;49.85;21.70;;;;;;;22.01;45.47;94101.16;4997239;28;20353;-88
2022/06/17 10:04:31;;;;;;;32.95;17.27;;;;;;;22.09;45.42;94111.06;5013312;28;20087;-87
2022/06/17 10:07:24;;;;;;;29.00;13.50;;;;;;;22.05;45.29;94110.63;5012560;28;20037;-88
2022/06/17 10:09:54;;;;;;;21.30;12.18;;;;;;;22.01;45.09;94112.16;5018029;28;20033;-87
2022/06/17 10:12:57;;;;;;;17.40;12.57;;;;;;;22.01;45.20;94110.16;5000917;28;20095;-89
2022/06/17 10:15:22;;;;;;;19.98;12.93;;;;;;;22.01;44.99;94107.41;5014300;28;20125;-86
2022/06/17 10:21:10;;;;;;;17.20;10.23;;;;;;;22.06;45.25;94111.38;5015962;28;20044;-88
2022/06/17 10:23:52;;;;;;;14.25;9.65;;;;;;;22.08;45.64;94109.59;5017843;28;20042;-91
2022/06/17 10:26:36;;;;;;;13.20;9.15;;;;;;;22.07;45.96;94099.09;5035199;28;20036;-92
2022/06/17 10:29:17;;;;;;;12.68;9.25;;;;;;;22.09;46.03;94093.78;5013480;28;20053;-87
2022/06/17 10:31:44;;;;;;;16.63;9.65;;;;;;;22.07;45.81;94099.84;5028125;28;20033;-87
2022/06/17 10:34:14;;;;;;;29.20;16.70;;;;;;;22.08;45.78;94087.56;4995699;28;20105;-87
2022/06/17 10:36:39;;;;;;;30.55;21.98;;;;;;;22.13;45.53;94095.00;4996430;28;20041;-88
2022/06/17 10:39:05;;;;;;;52.72;43.80;;;;;;;22.14;45.46;94090.97;5008448;28;20404;-87
2022/06/17 10:41:30;;;;;;;21.15;15.25;;;;;;;22.17;45.35;94103.72;5007172;28;20033;-89
2022/06/17 10:43:56;;;;;;;17.33;10.25;;;;;;;22.13;44.69;94094.25;4996813;28;20057;-90
2022/06/17 10:46:21;;;;;;;39.33;32.22;;;;;;;22.16;44.75;94091.19;5012142;28;20427;-87
2022/06/17 10:48:48;;;;;;;27.35;19.08;;;;;;;22.12;44.39;94090.00;5028435;28;20045;-89
2022/06/17 10:51:14;;;;;;;12.30;9.50;;;;;;;22.14;44.39;94090.22;5007553;28;20548;-86
2022/06/17 10:53:39;;;;;;;12.23;9.25;;;;;;;22.14;44.32;94090.97;5007846;28;20026;-88
2022/06/17 10:56:09;;;;;;;9.77;8.63;;;;;;;22.13;44.32;94088.75;5008970;28;20045;-87
2022/06/17 10:58:34;;;;;;;10.13;7.65;;;;;;;22.09;44.35;94093.78;5008633;28;20054;-87
2022/06/17 11:01:01;;;;;;;8.07;7.22;;;;;;;22.11;43.91;94085.75;5024659;28;20045;-87
2022/06/17 11:03:34;;;;;;;12.32;8.23;;;;;;;22.15;43.98;94089.72;5007088;28;20026;-87
2022/06/17 11:06:03;;;;;;;8.82;7.93;;;;;;;22.13;43.93;94088.75;5011936;28;20036;-90
2022/06/17 11:08:33;;;;;;;8.05;7.25;;;;;;;22.09;43.68;94086.28;4995411;28;20040;-87
2022/06/17 11:12:02;;;;;;;10.57;8.60;;;;;;;22.12;43.87;94092.75;5012348;28;20230;-88
2022/06/17 11:13:45;;;;;;;10.40;8.77;;;;;;;22.10;43.93;94103.53;5014676;28;20488;-89
2022/06/17 11:16:11;;;;;;;7.93;7.13;;;;;;;22.08;43.96;94087.56;5011432;28;20439;-87
2022/06/17 11:18:36;;;;;;;6.60;6.00;;;;;;;22.08;44.37;94093.06;5012102;28;20050;-87
2022/06/17 11:21:06;;;;;;;5.50;5.00;;;;;;;22.10;44.51;94098.03;5011524;28;20099;-87
2022/06/17 11:23:38;;;;;;;6.35;5.40;;;;;;;22.11;44.62;94094.75;5024918;28;20041;-89
2022/06/17 11:26:27;;;;;;;6.88;5.50;;;;;;;22.14;45.24;94096.47;5008427;28;20049;-88
2022/06/17 11:28:55;;;;;;;6.45;5.80;;;;;;;22.13;44.77;94097.75;5008536;28;20465;-88
2022/06/17 11:31:23;;;;;;;8.07;6.75;;;;;;;22.11;44.76;94099.53;5027313;28;20048;-87
2022/06/17 11:33:54;;;;;;;5.13;4.72;;;;;;;22.10;44.96;94095.28;5011670;28;20530;-88
2022/06/17 11:36:22;;;;;;;10.98;6.22;;;;;;;22.08;44.67;94106.09;5007528;28;20474;-91
2022/06/17 11:38:48;;;;;;;7.60;5.18;;;;;;;22.09;44.27;94096.53;5005488;28;20045;-87
2022/06/17 11:41:27;;;;;;;6.03;5.38;;;;;;;22.15;44.12;94099.97;4983027;28;20464;-89
2022/06/17 11:43:53;;;;;;;6.50;5.63;;;;;;;22.08;43.92;94089.56;4988189;28;20042;-88
2022/06/17 11:46:23;;;;;;;7.70;6.30;;;;;;;22.06;44.46;94092.84;5006925;28;20033;-88
2022/06/17 11:48:53;;;;;;;7.32;5.30;;;;;;;22.05;44.29;94090.59;5011662;28;20124;-88